Burris, Wyoming
Current Conditions -  °F | °C
As of 3:35 AM on Sunday 26 Oct 2014 (Local Time) from KDUB Reporting Station
Light Rain Light Rain  
Wind Chill: 31°   Ceiling: 2800
Heat Index: 41°   Visibility: 10mi
Dew Point: 34°   Wind: 22mph
Humidity: 76%   Direction: 290°WNW
Pressure: 29.93"   Gusts: 31mph
Location:  43.3953°N, 109.121°W
Report Text: KDUB 260935Z AUTO 29019G27KT 10SM -RA BKN028 BKN047 OVC090 05/01 A2993 RMK AO2 LTG DSNT SW
Loading
Personal Weather Stations






























Interactive Weather Map
Tropical Storm Tracking
New forecast layout! Learn more

10-Day Weather Forecast

Advertisements
Track Severe Weather on mobile